DABC

Mohamed Boudiaf International Airport

Constantine, Algeria
TAF DABC 210500Z 2106/2206 14006KT 9999 FEW023TCU SCT030 BECMG 2110/2112 28010KT TEMPO 2112/2120 5000 -TSRA FEW020CB BECMG 2122/2124 VRB02KT
Issued Valid From Valid To
Jun-21 @ 05:00 UTC
(5 hours ago)
Jun-21 @ 06:00 UTC
(4 hours ago)
Jun-22 @ 06:00 UTC
(in 20 hours)
Expired Click to View Jun-21 @ 06:00 to Jun-21 @ 10:00
TAF DABC 210500Z 2106/2206 14006KT 9999 FEW023TCU SCT030
Wind Visibility Clouds
140° at 6 knots 10,000+ meters
  • Few at 2,300' AGL
  • Scattered at 3,000' AGL
Becoming Jun-21 @ 10:00 to Jun-21 @ 22:00
BECMG 2110/2112 28010KT
Wind Visibility Clouds
280° at 10 knots 10,000+ meters
  • Few at 2,300' AGL
  • Scattered at 3,000' AGL
Temporary Jun-21 @ 12:00 to Jun-21 @ 20:00
TEMPO 2112/2120 5000 -TSRA FEW020CB
Visibility Clouds Conditions
5,005 meters
  • Few at 2,000' AGL
  • Light Thunderstorm
  • Light Rain
Becoming Jun-21 @ 22:00 to Jun-22 @ 06:00
BECMG 2122/2124 VRB02KT
Wind Visibility Clouds
Variable at 2 knots 10,000+ meters
  • Few at 2,300' AGL
  • Scattered at 3,000' AGL
TAF DABC 210500Z 2106/2206 14006KT 9999 FEW023TCU SCT030 BECMG 2110/2112 28010KT TEMPO 2112/2120 5000 -TSRA FEW020CB BECMG 2122/2124 VRB02KT
Issued Jun-21 @ 05:00 UTC
(5 hours ago)
Valid From Jun-21 @ 06:00 UTC
(4 hours ago)
Valid To Jun-22 @ 06:00 UTC
(in 20 hours)
Jun-21 @ 06:00 - Jun-21 @ 10:00
Wind Visibility
140° at 6 knots 10,000+ meters
Clouds
  • Few at 2,300' AGL
  • Scattered at 3,000' AGL
Becoming Jun-21 @ 10:00 - Jun-21 @ 22:00
Wind Visibility
280° at 10 knots 10,000+ meters
Clouds
  • Few at 2,300' AGL
  • Scattered at 3,000' AGL
Temporary Jun-21 @ 12:00 - Jun-21 @ 20:00
Clouds
  • Few at 2,000' AGL
Conditions
  • Light Thunderstorm
  • Light Rain
Becoming Jun-21 @ 22:00 - Jun-22 @ 06:00
Wind Visibility
Variable at 2 knots 10,000+ meters
Clouds
  • Few at 2,300' AGL
  • Scattered at 3,000' AGL